PWSweather.com
Personal Weather Stations
Station Observations
ATLSISEO
Iseo, IseoIT 25049

IseoIseoIT 25049

Lat: 45.659737, Lon: 10.03512

Elevation: 15

Station Type: PCE FW20

Latest ConditionsUpdated 11:08:49 AM GMT+01:01 Tuesday, Oct 15, 2019
Currently Today's Max Today's Min Today's Average
Temperature 65.8°F18.8°C 65.8°F18.8°C 62.6°F17.0°C 63.4°F17.4°C
Dew Point 57.3°F14.1°C 58.9°F14.9°C 56.9°F13.8°C 57.7°F14.3°C
Winds 9.2 mph NE14.8 kmh NE 13.0 mph -20.9 kmh - - 6.9 mph 11.1 kmh
Wind Gusts 10.7 mph17.2 kmh 15.2 mph24.5 kmh - -
Humidity 74% 86% 74% 82%
Pressure 29.95 in1014.2 mb 30.12 in1020.0 mb 29.94 in1013.9 mb -
Hour Temp Dew Point Humidity Winds Wind Gusts Pressure Precip Precip Rate Daily Precip Total
11:08 AM 65.8°F18.8°C 57.3°F14.1°C 74% 9.2 mph NE14.8 kmh NE 10.7 mph17.2 kmh 29.95 in1014.2 mb 0.00 in0.0 mm 0.00 in0.0 mm 0.00 in0.0 mm
11:03 AM 65.8°F18.8°C 57.3°F14.1°C 74% 9.2 mph NE14.8 kmh NE 10.7 mph17.2 kmh 29.94 in1013.9 mb 0.00 in0.0 mm 0.00 in0.0 mm 0.00 in0.0 mm
10:58 AM 65.8°F18.8°C 57.3°F14.1°C 74% 9.2 mph ENE14.8 kmh ENE 10.7 mph17.2 kmh 29.95 in1014.2 mb 0.00 in0.0 mm 0.00 in0.0 mm 0.00 in0.0 mm
10:53 AM 65.8°F18.8°C 58.1°F14.5°C 76% 10.7 mph E17.2 kmh E 12.1 mph19.5 kmh 29.96 in1014.6 mb 0.00 in0.0 mm 0.00 in0.0 mm 0.00 in0.0 mm
10:48 AM 64.8°F18.2°C 57.7°F14.3°C 78% 8.3 mph E13.4 kmh E 9.2 mph14.8 kmh 29.96 in1014.6 mb 0.00 in0.0 mm 0.00 in0.0 mm 0.00 in0.0 mm
10:43 AM 65.1°F18.4°C 58.1°F14.5°C 78% 8.3 mph E13.4 kmh E 9.8 mph15.8 kmh 29.96 in1014.6 mb 0.00 in0.0 mm 0.00 in0.0 mm 0.00 in0.0 mm
10:38 AM 65.3°F18.5°C 58.3°F14.6°C 78% 6.9 mph E11.1 kmh E 8.3 mph13.4 kmh 29.96 in1014.6 mb 0.00 in0.0 mm 0.00 in0.0 mm 0.00 in0.0 mm
10:33 AM 65.1°F18.4°C 58.1°F14.5°C 78% 8.3 mph E13.4 kmh E 9.2 mph14.8 kmh 29.96 in1014.6 mb 0.00 in0.0 mm 0.00 in0.0 mm 0.00 in0.0 mm
10:23 AM 64.6°F18.1°C 57.6°F14.2°C 78% 6.9 mph E11.1 kmh E 8.3 mph13.4 kmh 29.96 in1014.6 mb 0.00 in0.0 mm 0.00 in0.0 mm 0.00 in0.0 mm
10:18 AM 64.6°F18.1°C 57.9°F14.4°C 79% 7.6 mph E12.2 kmh E 9.2 mph14.8 kmh 29.97 in1014.9 mb 0.00 in0.0 mm 0.00 in0.0 mm 0.00 in0.0 mm
10:13 AM 64.6°F18.1°C 58.6°F14.8°C 81% 8.3 mph E13.4 kmh E 9.8 mph15.8 kmh 29.97 in1014.9 mb 0.00 in0.0 mm 0.00 in0.0 mm 0.00 in0.0 mm
10:08 AM 64.4°F18.0°C 58.1°F14.5°C 80% 7.6 mph SSE12.2 kmh SSE 9.2 mph14.8 kmh 29.98 in1015.2 mb 0.00 in0.0 mm 0.00 in0.0 mm 0.00 in0.0 mm
10:03 AM 64.4°F18.0°C 58.8°F14.9°C 82% 6.0 mph E9.7 kmh E 7.6 mph12.2 kmh 29.97 in1014.9 mb 0.00 in0.0 mm 0.00 in0.0 mm 0.00 in0.0 mm
09:57 AM 64.4°F18.0°C 58.8°F14.9°C 82% 3.8 mph E6.1 kmh E 5.4 mph8.7 kmh 29.97 in1014.9 mb 0.00 in0.0 mm 0.00 in0.0 mm 0.00 in0.0 mm
09:52 AM 64.2°F17.9°C 58.3°F14.6°C 81% 6.9 mph E11.1 kmh E 8.3 mph13.4 kmh 29.97 in1014.9 mb 0.00 in0.0 mm 0.00 in0.0 mm 0.00 in0.0 mm
09:47 AM 64.0°F17.8°C 58.1°F14.5°C 81% 5.4 mph E8.7 kmh E 6.9 mph11.1 kmh 29.98 in1015.2 mb 0.00 in0.0 mm 0.00 in0.0 mm 0.00 in0.0 mm
09:42 AM 63.9°F17.7°C 57.6°F14.2°C 80% 6.0 mph NE9.7 kmh NE 6.9 mph11.1 kmh 29.98 in1015.2 mb 0.00 in0.0 mm 0.00 in0.0 mm 0.00 in0.0 mm
09:37 AM 64.0°F17.8°C 57.4°F14.1°C 79% 7.6 mph NE12.2 kmh NE 9.2 mph14.8 kmh 29.98 in1015.2 mb 0.00 in0.0 mm 0.00 in0.0 mm 0.00 in0.0 mm
09:32 AM 64.0°F17.8°C 57.4°F14.1°C 79% 5.4 mph E8.7 kmh E 7.6 mph12.2 kmh 29.98 in1015.2 mb 0.00 in0.0 mm 0.00 in0.0 mm 0.00 in0.0 mm
09:27 AM 64.0°F17.8°C 57.4°F14.1°C 79% 6.0 mph E9.7 kmh E 6.9 mph11.1 kmh 29.99 in1015.6 mb 0.00 in0.0 mm 0.00 in0.0 mm 0.00 in0.0 mm
09:22 AM 64.0°F17.8°C 57.4°F14.1°C 79% 8.3 mph E13.4 kmh E 9.2 mph14.8 kmh 29.98 in1015.2 mb 0.00 in0.0 mm 0.00 in0.0 mm 0.00 in0.0 mm
09:17 AM 64.0°F17.8°C 57.4°F14.1°C 79% 9.8 mph E15.8 kmh E 11.4 mph18.3 kmh 29.97 in1014.9 mb 0.00 in0.0 mm 0.00 in0.0 mm 0.00 in0.0 mm
09:12 AM 64.0°F17.8°C 57.4°F14.1°C 79% 9.8 mph SSE15.8 kmh SSE 10.7 mph17.2 kmh 29.99 in1015.6 mb 0.00 in0.0 mm 0.00 in0.0 mm 0.00 in0.0 mm
09:07 AM 64.0°F17.8°C 57.4°F14.1°C 79% 7.6 mph E12.2 kmh E 8.3 mph13.4 kmh 29.98 in1015.2 mb 0.00 in0.0 mm 0.00 in0.0 mm 0.00 in0.0 mm
09:02 AM 64.0°F17.8°C 57.4°F14.1°C 79% 7.6 mph E12.2 kmh E 8.3 mph13.4 kmh 30.00 in1015.9 mb 0.00 in0.0 mm 0.00 in0.0 mm 0.00 in0.0 mm
08:57 AM 64.0°F17.8°C 57.4°F14.1°C 79% 6.0 mph E9.7 kmh E 6.9 mph11.1 kmh 30.00 in1015.9 mb 0.00 in0.0 mm 0.00 in0.0 mm 0.00 in0.0 mm
08:52 AM 64.0°F17.8°C 57.0°F13.9°C 78% 8.3 mph E13.4 kmh E 9.8 mph15.8 kmh 30.00 in1015.9 mb 0.00 in0.0 mm 0.00 in0.0 mm 0.00 in0.0 mm
08:47 AM 64.0°F17.8°C 57.0°F13.9°C 78% 4.5 mph E7.2 kmh E 6.0 mph9.7 kmh 30.00 in1015.9 mb 0.00 in0.0 mm 0.00 in0.0 mm 0.00 in0.0 mm
08:42 AM 64.0°F17.8°C 57.4°F14.1°C 79% 6.9 mph E11.1 kmh E 7.6 mph12.2 kmh 30.00 in1015.9 mb 0.00 in0.0 mm 0.00 in0.0 mm 0.00 in0.0 mm
08:37 AM 63.9°F17.7°C 57.2°F14.0°C 79% 6.9 mph E11.1 kmh E 7.6 mph12.2 kmh 30.01 in1016.3 mb 0.00 in0.0 mm 0.00 in0.0 mm 0.00 in0.0 mm
08:32 AM 63.9°F17.7°C 57.2°F14.0°C 79% 6.9 mph SE11.1 kmh SE 7.6 mph12.2 kmh 30.00 in1015.9 mb 0.00 in0.0 mm 0.00 in0.0 mm 0.00 in0.0 mm
08:27 AM 63.9°F17.7°C 57.2°F14.0°C 79% 8.3 mph E13.4 kmh E 11.4 mph18.3 kmh 30.00 in1015.9 mb 0.00 in0.0 mm 0.00 in0.0 mm 0.00 in0.0 mm
08:22 AM 63.7°F17.6°C 57.0°F13.9°C 79% 9.8 mph E15.8 kmh E 11.4 mph18.3 kmh 29.99 in1015.6 mb 0.00 in0.0 mm 0.00 in0.0 mm 0.00 in0.0 mm
08:17 AM 63.5°F17.5°C 56.9°F13.8°C 79% 6.9 mph E11.1 kmh E 8.3 mph13.4 kmh 30.00 in1015.9 mb 0.00 in0.0 mm 0.00 in0.0 mm 0.00 in0.0 mm
08:12 AM 63.3°F17.4°C 57.0°F13.9°C 80% 6.9 mph E11.1 kmh E 9.2 mph14.8 kmh 30.00 in1015.9 mb 0.00 in0.0 mm 0.00 in0.0 mm 0.00 in0.0 mm
08:07 AM 63.3°F17.4°C 57.4°F14.1°C 81% 6.0 mph SE9.7 kmh SE 6.9 mph11.1 kmh 30.00 in1015.9 mb 0.00 in0.0 mm 0.00 in0.0 mm 0.00 in0.0 mm
08:02 AM 63.1°F17.3°C 57.2°F14.0°C 81% 7.6 mph E12.2 kmh E 9.2 mph14.8 kmh 30.00 in1015.9 mb 0.00 in0.0 mm 0.00 in0.0 mm 0.00 in0.0 mm
07:57 AM 63.0°F17.2°C 57.4°F14.1°C 82% 7.6 mph ENE12.2 kmh ENE 10.7 mph17.2 kmh 30.00 in1015.9 mb 0.00 in0.0 mm 0.00 in0.0 mm 0.00 in0.0 mm
07:52 AM 63.0°F17.2°C 57.4°F14.1°C 82% 6.9 mph E11.1 kmh E 9.2 mph14.8 kmh 30.00 in1015.9 mb 0.00 in0.0 mm 0.00 in0.0 mm 0.00 in0.0 mm
07:47 AM 63.0°F17.2°C 57.4°F14.1°C 82% 8.3 mph SE13.4 kmh SE 9.2 mph14.8 kmh 29.99 in1015.6 mb 0.00 in0.0 mm 0.00 in0.0 mm 0.00 in0.0 mm
07:42 AM 63.0°F17.2°C 57.7°F14.3°C 83% 5.4 mph SE8.7 kmh SE 6.9 mph11.1 kmh 30.00 in1015.9 mb 0.00 in0.0 mm 0.00 in0.0 mm 0.00 in0.0 mm
07:37 AM 63.0°F17.2°C 57.7°F14.3°C 83% 7.6 mph SE12.2 kmh SE 9.8 mph15.8 kmh 30.00 in1015.9 mb 0.00 in0.0 mm 0.00 in0.0 mm 0.00 in0.0 mm
07:32 AM 63.0°F17.2°C 57.7°F14.3°C 83% 8.3 mph E13.4 kmh E 10.7 mph17.2 kmh 30.00 in1015.9 mb 0.00 in0.0 mm 0.00 in0.0 mm 0.00 in0.0 mm
07:27 AM 63.1°F17.3°C 57.9°F14.4°C 83% 10.7 mph E17.2 kmh E 13.7 mph22.0 kmh 30.00 in1015.9 mb 0.00 in0.0 mm 0.00 in0.0 mm 0.00 in0.0 mm
07:22 AM 63.0°F17.2°C 57.7°F14.3°C 83% 6.0 mph E9.7 kmh E 8.3 mph13.4 kmh 30.00 in1015.9 mb 0.00 in0.0 mm 0.00 in0.0 mm 0.00 in0.0 mm
07:17 AM 63.0°F17.2°C 57.4°F14.1°C 82% 6.9 mph SE11.1 kmh SE 8.3 mph13.4 kmh 30.00 in1015.9 mb 0.00 in0.0 mm 0.00 in0.0 mm 0.00 in0.0 mm
07:12 AM 63.3°F17.4°C 58.1°F14.5°C 83% 3.8 mph SE6.1 kmh SE 4.5 mph7.2 kmh 30.00 in1015.9 mb 0.00 in0.0 mm 0.00 in0.0 mm 0.00 in0.0 mm
07:07 AM 63.0°F17.2°C 57.7°F14.3°C 83% 5.4 mph 8.7 kmh 6.9 mph11.1 kmh 30.00 in1015.9 mb 0.00 in0.0 mm 0.00 in0.0 mm 0.00 in0.0 mm
07:02 AM 63.0°F17.2°C 57.7°F14.3°C 83% 5.4 mph 8.7 kmh 6.9 mph11.1 kmh 30.00 in1015.9 mb 0.00 in0.0 mm 0.00 in0.0 mm 0.00 in0.0 mm
06:57 AM 63.0°F17.2°C 58.1°F14.5°C 84% 6.0 mph NE9.7 kmh NE 6.9 mph11.1 kmh 30.00 in1015.9 mb 0.00 in0.0 mm 0.00 in0.0 mm 0.00 in0.0 mm
06:52 AM 62.6°F17.0°C 57.7°F14.3°C 84% 5.4 mph NE8.7 kmh NE 6.9 mph11.1 kmh 30.01 in1016.3 mb 0.00 in0.0 mm 0.00 in0.0 mm 0.00 in0.0 mm
06:47 AM 62.6°F17.0°C 57.7°F14.3°C 84% 2.2 mph NE3.5 kmh NE 3.1 mph5.0 kmh 30.01 in1016.3 mb 0.00 in0.0 mm 0.00 in0.0 mm 0.00 in0.0 mm
06:42 AM 62.8°F17.1°C 57.9°F14.4°C 84% 0.7 mph SW1.1 kmh SW 1.6 mph2.6 kmh 30.02 in1016.6 mb 0.00 in0.0 mm 0.00 in0.0 mm 0.00 in0.0 mm
06:37 AM 62.8°F17.1°C 57.9°F14.4°C 84% 0.7 mph SW1.1 kmh SW 1.6 mph2.6 kmh 30.02 in1016.6 mb 0.00 in0.0 mm 0.00 in0.0 mm 0.00 in0.0 mm
06:32 AM 62.8°F17.1°C 57.5°F14.2°C 83% 3.1 mph NE5.0 kmh NE 3.8 mph6.1 kmh 30.01 in1016.3 mb 0.00 in0.0 mm 0.00 in0.0 mm 0.00 in0.0 mm
06:27 AM 62.6°F17.0°C 57.4°F14.1°C 83% 2.2 mph SE3.5 kmh SE 3.1 mph5.0 kmh 30.02 in1016.6 mb 0.00 in0.0 mm 0.00 in0.0 mm 0.00 in0.0 mm
06:22 AM 62.8°F17.1°C 57.9°F14.4°C 84% 2.2 mph SE3.5 kmh SE 3.8 mph6.1 kmh 30.01 in1016.3 mb 0.00 in0.0 mm 0.00 in0.0 mm 0.00 in0.0 mm
06:17 AM 63.0°F17.2°C 57.7°F14.3°C 83% 5.4 mph ESE8.7 kmh ESE 6.0 mph9.7 kmh 30.02 in1016.6 mb 0.00 in0.0 mm 0.00 in0.0 mm 0.00 in0.0 mm
06:12 AM 62.8°F17.1°C 57.5°F14.2°C 83% 5.4 mph SE8.7 kmh SE 6.9 mph11.1 kmh 30.01 in1016.3 mb 0.00 in0.0 mm 0.00 in0.0 mm 0.00 in0.0 mm
06:07 AM 63.0°F17.2°C 57.4°F14.1°C 82% 6.0 mph SE9.7 kmh SE 7.6 mph12.2 kmh 30.01 in1016.3 mb 0.00 in0.0 mm 0.00 in0.0 mm 0.00 in0.0 mm
06:02 AM 63.3°F17.4°C 57.4°F14.1°C 81% 8.3 mph E13.4 kmh E 9.8 mph15.8 kmh 30.01 in1016.3 mb 0.00 in0.0 mm 0.00 in0.0 mm 0.00 in0.0 mm
05:57 AM 63.3°F17.4°C 57.7°F14.3°C 82% 12.1 mph E19.5 kmh E 13.0 mph20.9 kmh 30.01 in1016.3 mb 0.00 in0.0 mm 0.00 in0.0 mm 0.00 in0.0 mm
05:52 AM 63.3°F17.4°C 58.1°F14.5°C 83% 10.7 mph ENE17.2 kmh ENE 12.1 mph19.5 kmh 30.01 in1016.3 mb 0.00 in0.0 mm 0.00 in0.0 mm 0.00 in0.0 mm
05:47 AM 63.0°F17.2°C 58.1°F14.5°C 84% 10.7 mph E17.2 kmh E 12.1 mph19.5 kmh 30.01 in1016.3 mb 0.00 in0.0 mm 0.00 in0.0 mm 0.00 in0.0 mm
05:42 AM 62.8°F17.1°C 57.5°F14.2°C 83% 9.8 mph E15.8 kmh E 11.4 mph18.3 kmh 30.02 in1016.6 mb 0.00 in0.0 mm 0.00 in0.0 mm 0.00 in0.0 mm
05:37 AM 62.8°F17.1°C 57.9°F14.4°C 84% 6.9 mph ESE11.1 kmh ESE 8.3 mph13.4 kmh 30.02 in1016.6 mb 0.00 in0.0 mm 0.00 in0.0 mm 0.00 in0.0 mm
05:32 AM 62.8°F17.1°C 57.9°F14.4°C 84% 3.1 mph SE5.0 kmh SE 4.5 mph7.2 kmh 30.02 in1016.6 mb 0.00 in0.0 mm 0.00 in0.0 mm 0.00 in0.0 mm
05:27 AM 62.8°F17.1°C 57.5°F14.2°C 83% 5.4 mph ESE8.7 kmh ESE 6.9 mph11.1 kmh 30.02 in1016.6 mb 0.00 in0.0 mm 0.00 in0.0 mm 0.00 in0.0 mm
05:22 AM 62.8°F17.1°C 57.9°F14.4°C 84% 6.0 mph E9.7 kmh E 7.6 mph12.2 kmh 30.02 in1016.6 mb 0.00 in0.0 mm 0.00 in0.0 mm 0.00 in0.0 mm
05:17 AM 63.0°F17.2°C 58.1°F14.5°C 84% 6.0 mph E9.7 kmh E 7.6 mph12.2 kmh 30.03 in1016.9 mb 0.00 in0.0 mm 0.00 in0.0 mm 0.00 in0.0 mm
05:12 AM 63.0°F17.2°C 58.1°F14.5°C 84% 9.2 mph E14.8 kmh E 12.1 mph19.5 kmh 30.03 in1016.9 mb 0.00 in0.0 mm 0.00 in0.0 mm 0.00 in0.0 mm
05:07 AM 63.0°F17.2°C 57.7°F14.3°C 83% 9.2 mph ESE14.8 kmh ESE 10.7 mph17.2 kmh 30.03 in1016.9 mb 0.00 in0.0 mm 0.00 in0.0 mm 0.00 in0.0 mm
05:02 AM 63.0°F17.2°C 57.7°F14.3°C 83% 9.2 mph ESE14.8 kmh ESE 10.7 mph17.2 kmh 30.03 in1016.9 mb 0.00 in0.0 mm 0.00 in0.0 mm 0.00 in0.0 mm
04:57 AM 63.0°F17.2°C 57.7°F14.3°C 83% 7.6 mph E12.2 kmh E 11.4 mph18.3 kmh 30.03 in1016.9 mb 0.00 in0.0 mm 0.00 in0.0 mm 0.00 in0.0 mm
04:52 AM 63.0°F17.2°C 57.4°F14.1°C 82% 6.9 mph ESE11.1 kmh ESE 8.3 mph13.4 kmh 30.03 in1016.9 mb 0.00 in0.0 mm 0.00 in0.0 mm 0.00 in0.0 mm
04:47 AM 63.3°F17.4°C 57.7°F14.3°C 82% 9.8 mph SSE15.8 kmh SSE 11.4 mph18.3 kmh 30.03 in1016.9 mb 0.00 in0.0 mm 0.00 in0.0 mm 0.00 in0.0 mm
04:42 AM 63.3°F17.4°C 57.7°F14.3°C 82% 9.8 mph E15.8 kmh E 11.4 mph18.3 kmh 30.03 in1016.9 mb 0.00 in0.0 mm 0.00 in0.0 mm 0.00 in0.0 mm
04:37 AM 63.3°F17.4°C 57.7°F14.3°C 82% 13.0 mph E20.9 kmh E 15.2 mph24.5 kmh 30.03 in1016.9 mb 0.00 in0.0 mm 0.00 in0.0 mm 0.00 in0.0 mm
04:32 AM 63.0°F17.2°C 57.7°F14.3°C 83% 12.1 mph SSE19.5 kmh SSE 13.7 mph22.0 kmh 30.02 in1016.6 mb 0.00 in0.0 mm 0.00 in0.0 mm 0.00 in0.0 mm
04:27 AM 63.0°F17.2°C 57.7°F14.3°C 83% 12.1 mph E19.5 kmh E 13.7 mph22.0 kmh 30.03 in1016.9 mb 0.00 in0.0 mm 0.00 in0.0 mm 0.00 in0.0 mm
04:22 AM 63.0°F17.2°C 57.7°F14.3°C 83% 11.4 mph E18.3 kmh E 13.7 mph22.0 kmh 30.03 in1016.9 mb 0.00 in0.0 mm 0.00 in0.0 mm 0.00 in0.0 mm
04:17 AM 63.3°F17.4°C 57.4°F14.1°C 81% 11.4 mph E18.3 kmh E 13.0 mph20.9 kmh 30.03 in1016.9 mb 0.00 in0.0 mm 0.00 in0.0 mm 0.00 in0.0 mm
04:12 AM 63.5°F17.5°C 56.9°F13.8°C 79% 9.2 mph E14.8 kmh E 10.7 mph17.2 kmh 30.04 in1017.3 mb 0.00 in0.0 mm 0.00 in0.0 mm 0.00 in0.0 mm
04:07 AM 63.3°F17.4°C 57.0°F13.9°C 80% 9.8 mph E15.8 kmh E 11.4 mph18.3 kmh 30.04 in1017.3 mb 0.00 in0.0 mm 0.00 in0.0 mm 0.00 in0.0 mm
04:02 AM 63.5°F17.5°C 57.2°F14.0°C 80% 9.2 mph E14.8 kmh E 10.7 mph17.2 kmh 30.04 in1017.3 mb 0.00 in0.0 mm 0.00 in0.0 mm 0.00 in0.0 mm
03:57 AM 63.5°F17.5°C 57.6°F14.2°C 81% 10.7 mph SE17.2 kmh SE 14.5 mph23.3 kmh 30.04 in1017.3 mb 0.00 in0.0 mm 0.00 in0.0 mm 0.00 in0.0 mm
03:52 AM 63.3°F17.4°C 57.0°F13.9°C 80% 10.7 mph E17.2 kmh E 13.0 mph20.9 kmh 30.04 in1017.3 mb 0.00 in0.0 mm 0.00 in0.0 mm 0.00 in0.0 mm
03:47 AM 63.1°F17.3°C 57.2°F14.0°C 81% 6.9 mph SE11.1 kmh SE 9.2 mph14.8 kmh 30.05 in1017.6 mb 0.00 in0.0 mm 0.00 in0.0 mm 0.00 in0.0 mm
03:42 AM 63.0°F17.2°C 57.4°F14.1°C 82% 6.9 mph ESE11.1 kmh ESE 8.3 mph13.4 kmh 30.05 in1017.6 mb 0.00 in0.0 mm 0.00 in0.0 mm 0.00 in0.0 mm
03:37 AM 63.3°F17.4°C 57.7°F14.3°C 82% 6.9 mph SE11.1 kmh SE 8.3 mph13.4 kmh 30.04 in1017.3 mb 0.00 in0.0 mm 0.00 in0.0 mm 0.00 in0.0 mm
03:32 AM 63.3°F17.4°C 57.7°F14.3°C 82% 6.9 mph E11.1 kmh E 8.3 mph13.4 kmh 30.05 in1017.6 mb 0.00 in0.0 mm 0.00 in0.0 mm 0.00 in0.0 mm
03:27 AM 63.3°F17.4°C 57.7°F14.3°C 82% 6.9 mph E11.1 kmh E 8.3 mph13.4 kmh 30.04 in1017.3 mb 0.00 in0.0 mm 0.00 in0.0 mm 0.00 in0.0 mm
03:22 AM 63.3°F17.4°C 57.7°F14.3°C 82% 6.0 mph E9.7 kmh E 7.6 mph12.2 kmh 30.05 in1017.6 mb 0.00 in0.0 mm 0.00 in0.0 mm 0.00 in0.0 mm
03:16 AM 63.3°F17.4°C 57.7°F14.3°C 82% 6.9 mph E11.1 kmh E 7.6 mph12.2 kmh 30.05 in1017.6 mb 0.00 in0.0 mm 0.00 in0.0 mm 0.00 in0.0 mm
03:11 AM 63.3°F17.4°C 57.7°F14.3°C 82% 7.6 mph E12.2 kmh E 9.2 mph14.8 kmh 30.05 in1017.6 mb 0.00 in0.0 mm 0.00 in0.0 mm 0.00 in0.0 mm
03:06 AM 63.3°F17.4°C 57.7°F14.3°C 82% 8.3 mph ENE13.4 kmh ENE 10.7 mph17.2 kmh 30.05 in1017.6 mb 0.00 in0.0 mm 0.00 in0.0 mm 0.00 in0.0 mm
03:01 AM 63.3°F17.4°C 57.7°F14.3°C 82% 8.3 mph ENE13.4 kmh ENE 10.7 mph17.2 kmh 30.06 in1017.9 mb 0.00 in0.0 mm 0.00 in0.0 mm 0.00 in0.0 mm
02:56 AM 63.3°F17.4°C 57.4°F14.1°C 81% 6.9 mph E11.1 kmh E 9.2 mph14.8 kmh 30.06 in1017.9 mb 0.00 in0.0 mm 0.00 in0.0 mm 0.00 in0.0 mm
02:51 AM 63.3°F17.4°C 57.0°F13.9°C 80% 6.0 mph E9.7 kmh E 8.3 mph13.4 kmh 30.06 in1017.9 mb 0.00 in0.0 mm 0.00 in0.0 mm 0.00 in0.0 mm
02:46 AM 63.1°F17.3°C 57.6°F14.2°C 82% 9.2 mph E14.8 kmh E 11.4 mph18.3 kmh 30.06 in1017.9 mb 0.00 in0.0 mm 0.00 in0.0 mm 0.00 in0.0 mm
02:41 AM 63.0°F17.2°C 57.7°F14.3°C 83% 6.9 mph SE11.1 kmh SE 7.6 mph12.2 kmh 30.07 in1018.3 mb 0.00 in0.0 mm 0.00 in0.0 mm 0.00 in0.0 mm
02:36 AM 63.0°F17.2°C 58.1°F14.5°C 84% 5.4 mph SE8.7 kmh SE 6.9 mph11.1 kmh 30.07 in1018.3 mb 0.00 in0.0 mm 0.00 in0.0 mm 0.00 in0.0 mm
02:31 AM 63.0°F17.2°C 58.4°F14.7°C 85% 6.9 mph E11.1 kmh E 8.3 mph13.4 kmh 30.07 in1018.3 mb 0.00 in0.0 mm 0.00 in0.0 mm 0.00 in0.0 mm
02:26 AM 63.0°F17.2°C 58.7°F14.8°C 86% 6.0 mph SE9.7 kmh SE 6.9 mph11.1 kmh 30.07 in1018.3 mb 0.00 in0.0 mm 0.00 in0.0 mm 0.00 in0.0 mm
02:21 AM 63.0°F17.2°C 58.4°F14.7°C 85% 7.6 mph E12.2 kmh E 8.3 mph13.4 kmh 30.07 in1018.3 mb 0.00 in0.0 mm 0.00 in0.0 mm 0.00 in0.0 mm
02:16 AM 63.0°F17.2°C 58.1°F14.5°C 84% 5.4 mph E8.7 kmh E 6.0 mph9.7 kmh 30.07 in1018.3 mb 0.00 in0.0 mm 0.00 in0.0 mm 0.00 in0.0 mm
02:11 AM 62.8°F17.1°C 57.5°F14.2°C 83% 3.8 mph SE6.1 kmh SE 5.4 mph8.7 kmh 30.08 in1018.6 mb 0.00 in0.0 mm 0.00 in0.0 mm 0.00 in0.0 mm
02:06 AM 62.8°F17.1°C 57.5°F14.2°C 83% 4.5 mph SE7.2 kmh SE 6.0 mph9.7 kmh 30.08 in1018.6 mb 0.00 in0.0 mm 0.00 in0.0 mm 0.00 in0.0 mm
02:01 AM 63.0°F17.2°C 57.7°F14.3°C 83% 2.2 mph S3.5 kmh S 3.8 mph6.1 kmh 30.08 in1018.6 mb 0.00 in0.0 mm 0.00 in0.0 mm 0.00 in0.0 mm
01:56 AM 63.3°F17.4°C 58.1°F14.5°C 83% 2.2 mph SE3.5 kmh SE 3.8 mph6.1 kmh 30.08 in1018.6 mb 0.00 in0.0 mm 0.00 in0.0 mm 0.00 in0.0 mm
01:51 AM 63.3°F17.4°C 58.1°F14.5°C 83% 3.1 mph E5.0 kmh E 4.5 mph7.2 kmh 30.08 in1018.6 mb 0.00 in0.0 mm 0.00 in0.0 mm 0.00 in0.0 mm
01:46 AM 63.0°F17.2°C 57.7°F14.3°C 83% 5.4 mph E8.7 kmh E 6.0 mph9.7 kmh 30.09 in1019.0 mb 0.00 in0.0 mm 0.00 in0.0 mm 0.00 in0.0 mm
01:41 AM 63.0°F17.2°C 57.7°F14.3°C 83% 3.8 mph ESE6.1 kmh ESE 5.4 mph8.7 kmh 30.09 in1019.0 mb 0.00 in0.0 mm 0.00 in0.0 mm 0.00 in0.0 mm
01:36 AM 62.8°F17.1°C 57.2°F14.0°C 82% 3.1 mph SE5.0 kmh SE 3.8 mph6.1 kmh 30.09 in1019.0 mb 0.00 in0.0 mm 0.00 in0.0 mm 0.00 in0.0 mm
01:31 AM 63.0°F17.2°C 57.4°F14.1°C 82% 2.2 mph SE3.5 kmh SE 3.1 mph5.0 kmh 30.09 in1019.0 mb 0.00 in0.0 mm 0.00 in0.0 mm 0.00 in0.0 mm
01:26 AM 63.5°F17.5°C 57.9°F14.4°C 82% 1.6 mph SE2.6 kmh SE 3.1 mph5.0 kmh 30.09 in1019.0 mb 0.00 in0.0 mm 0.00 in0.0 mm 0.00 in0.0 mm
01:21 AM 63.5°F17.5°C 57.9°F14.4°C 82% 5.4 mph SE8.7 kmh SE 6.9 mph11.1 kmh 30.09 in1019.0 mb 0.00 in0.0 mm 0.00 in0.0 mm 0.00 in0.0 mm
01:16 AM 63.5°F17.5°C 57.6°F14.2°C 81% 6.0 mph E9.7 kmh E 7.6 mph12.2 kmh 30.10 in1019.3 mb 0.00 in0.0 mm 0.00 in0.0 mm 0.00 in0.0 mm
01:11 AM 63.5°F17.5°C 58.2°F14.6°C 83% 9.2 mph E14.8 kmh E 10.7 mph17.2 kmh 30.10 in1019.3 mb 0.00 in0.0 mm 0.00 in0.0 mm 0.00 in0.0 mm
01:06 AM 63.3°F17.4°C 58.1°F14.5°C 83% 10.7 mph E17.2 kmh E 11.4 mph18.3 kmh 30.10 in1019.3 mb 0.00 in0.0 mm 0.00 in0.0 mm 0.00 in0.0 mm
01:01 AM 63.3°F17.4°C 58.1°F14.5°C 83% 10.7 mph E17.2 kmh E 11.4 mph18.3 kmh 30.10 in1019.3 mb 0.00 in0.0 mm 0.00 in0.0 mm 0.00 in0.0 mm
12:56 AM 63.5°F17.5°C 58.2°F14.6°C 83% 9.8 mph E15.8 kmh E 11.4 mph18.3 kmh 30.10 in1019.3 mb 0.00 in0.0 mm 0.00 in0.0 mm 0.00 in0.0 mm
12:51 AM 63.3°F17.4°C 58.1°F14.5°C 83% 8.3 mph E13.4 kmh E 9.8 mph15.8 kmh 30.10 in1019.3 mb 0.00 in0.0 mm 0.00 in0.0 mm 0.00 in0.0 mm
12:46 AM 63.3°F17.4°C 58.1°F14.5°C 83% 9.2 mph E14.8 kmh E 9.8 mph15.8 kmh 30.10 in1019.3 mb 0.00 in0.0 mm 0.00 in0.0 mm 0.00 in0.0 mm
12:41 AM 63.1°F17.3°C 58.2°F14.6°C 84% 4.5 mph E7.2 kmh E 5.4 mph8.7 kmh 30.11 in1019.6 mb 0.00 in0.0 mm 0.00 in0.0 mm 0.00 in0.0 mm
12:36 AM 63.1°F17.3°C 58.2°F14.6°C 84% 4.5 mph ESE7.2 kmh ESE 6.0 mph9.7 kmh 30.10 in1019.3 mb 0.00 in0.0 mm 0.00 in0.0 mm 0.00 in0.0 mm
12:31 AM 63.3°F17.4°C 58.4°F14.7°C 84% 5.4 mph E8.7 kmh E 6.9 mph11.1 kmh 30.11 in1019.6 mb 0.00 in0.0 mm 0.00 in0.0 mm 0.00 in0.0 mm
12:26 AM 63.5°F17.5°C 58.2°F14.6°C 83% 5.4 mph E8.7 kmh E 6.9 mph11.1 kmh 30.11 in1019.6 mb 0.00 in0.0 mm 0.00 in0.0 mm 0.00 in0.0 mm
12:21 AM 63.3°F17.4°C 58.4°F14.7°C 84% 6.9 mph E11.1 kmh E 7.6 mph12.2 kmh 30.11 in1019.6 mb 0.00 in0.0 mm 0.00 in0.0 mm 0.00 in0.0 mm
12:16 AM 63.1°F17.3°C 58.6°F14.8°C 85% 3.8 mph E6.1 kmh E 5.4 mph8.7 kmh 30.11 in1019.6 mb 0.00 in0.0 mm 0.00 in0.0 mm 0.00 in0.0 mm
12:11 AM 63.1°F17.3°C 58.9°F14.9°C 86% 3.1 mph E5.0 kmh E 3.8 mph6.1 kmh 30.11 in1019.6 mb 0.00 in0.0 mm 0.00 in0.0 mm 0.00 in0.0 mm
12:06 AM 63.0°F17.2°C 58.7°F14.8°C 86% 3.1 mph E5.0 kmh E 4.5 mph7.2 kmh 30.12 in1020.0 mb 0.00 in0.0 mm 0.00 in0.0 mm 0.00 in0.0 mm
12:01 AM 63.1°F17.3°C 58.9°F14.9°C 86% 3.1 mph SE5.0 kmh SE 3.8 mph6.1 kmh 30.12 in1020.0 mb 0.00 in0.0 mm 0.00 in0.0 mm 0.00 in0.0 mm